Time;durP1;ratioP1;P1;durP2;ratioP2;P2;SDS_P1;SDS_P2;PMS_P1;PMS_P2;Temp;Humidity;BMP_temperature;BMP_pressure;BME280_temperature;BME280_humidity;BME280_pressure;Samples;Min_cycle;Max_cycle;Signal;HPM_P1;HPM_P2
2022/05/31 00:01:32;;;;;;;3.67;2.70;;;7.00;99.90;;;;;;5058383;28;20055;-62
2022/05/31 00:03:58;;;;;;;4.45;3.05;;;6.90;99.90;;;;;;5060236;28;20040;-62
2022/05/31 00:06:23;;;;;;;4.63;3.03;;;6.90;99.90;;;;;;5062517;28;20032;-62
2022/05/31 00:08:49;;;;;;;4.15;2.75;;;6.90;99.90;;;;;;5059947;28;20037;-61
2022/05/31 00:11:14;;;;;;;3.70;3.08;;;6.90;99.90;;;;;;5074367;28;20061;-62
2022/05/31 00:13:40;;;;;;;5.82;3.17;;;6.80;99.90;;;;;;5071962;28;20519;-62
2022/05/31 00:16:06;;;;;;;4.53;3.50;;;6.90;99.90;;;;;;5063049;28;20534;-62
2022/05/31 00:18:32;;;;;;;6.32;3.95;;;7.00;99.90;;;;;;5058099;28;20036;-62
2022/05/31 00:20:57;;;;;;;4.82;3.40;;;6.90;99.90;;;;;;5067063;28;20035;-62
2022/05/31 00:23:23;;;;;;;5.55;3.58;;;7.00;99.90;;;;;;5067386;28;20082;-62
2022/05/31 00:25:49;;;;;;;4.85;3.15;;;7.00;99.90;;;;;;5064781;28;20040;-62
2022/05/31 00:28:15;;;;;;;5.43;3.70;;;7.00;99.90;;;;;;5072387;28;20506;-62
2022/05/31 00:30:40;;;;;;;4.72;3.33;;;7.00;99.90;;;;;;5064828;28;20045;-62
2022/05/31 00:33:07;;;;;;;5.28;3.47;;;7.00;99.90;;;;;;5059509;28;20033;-61
2022/05/31 00:35:38;;;;;;;4.18;3.40;;;7.00;99.90;;;;;;5059645;28;20036;-62
2022/05/31 00:38:04;;;;;;;6.32;3.22;;;7.00;99.90;;;;;;5061655;28;20037;-62
2022/05/31 00:40:32;;;;;;;4.53;3.55;;;7.00;99.90;;;;;;5060619;28;20090;-62
2022/05/31 00:43:00;;;;;;;6.22;3.78;;;7.00;99.90;;;;;;5066028;28;20050;-62
2022/05/31 00:45:49;;;;;;;6.38;3.63;;;7.00;99.90;;;;;;5066308;28;20381;-61
2022/05/31 00:48:23;;;;;;;6.32;3.70;;;7.00;99.90;;;;;;5057099;28;20044;-62
2022/05/31 00:50:54;;;;;;;5.13;4.05;;;7.10;99.90;;;;;;5061157;28;20129;-62
2022/05/31 00:53:27;;;;;;;7.28;4.20;;;7.10;99.90;;;;;;5061443;28;20165;-62
2022/05/31 00:55:57;;;;;;;8.35;4.95;;;7.10;99.90;;;;;;5059667;28;20032;-62
2022/05/31 00:59:03;;;;;;;6.35;4.47;;;7.20;99.90;;;;;;5063840;28;20404;-62
2022/05/31 01:01:33;;;;;;;6.80;4.70;;;7.20;99.90;;;;;;5064088;28;20049;-62
2022/05/31 01:04:00;;;;;;;8.80;5.50;;;7.30;99.90;;;;;;5058675;28;20048;-62
2022/05/31 01:06:25;;;;;;;7.07;4.68;;;7.20;99.90;;;;;;5056776;28;20605;-62
2022/05/31 01:08:55;;;;;;;8.00;5.15;;;7.30;99.90;;;;;;5060496;28;20032;-62
2022/05/31 01:11:23;;;;;;;6.47;5.20;;;7.30;99.90;;;;;;5061586;28;20038;-62
2022/05/31 01:13:49;;;;;;;7.28;4.65;;;7.30;99.90;;;;;;5066590;28;20322;-62
2022/05/31 01:16:16;;;;;;;7.13;4.93;;;7.40;99.90;;;;;;5064584;28;20074;-62
2022/05/31 01:18:42;;;;;;;7.57;4.75;;;7.50;99.90;;;;;;5062790;28;20029;-62
2022/05/31 01:21:09;;;;;;;7.82;4.60;;;7.50;99.90;;;;;;5062914;28;20040;-62
2022/05/31 01:23:43;;;;;;;6.72;3.90;;;7.50;99.90;;;;;;5061889;28;20033;-62
2022/05/31 01:26:26;;;;;;;8.77;4.32;;;7.50;99.90;;;;;;5064307;28;20041;-62
2022/05/31 01:29:12;;;;;;;5.22;4.38;;;7.50;99.90;;;;;;5067282;28;20246;-62
2022/05/31 01:31:42;;;;;;;5.82;4.25;;;7.50;99.90;;;;;;5064144;28;20467;-62
2022/05/31 01:34:08;;;;;;;6.28;4.18;;;7.60;99.90;;;;;;5061578;28;20055;-62
2022/05/31 01:36:39;;;;;;;5.82;4.25;;;7.60;99.90;;;;;;5065331;28;20170;-62
2022/05/31 01:39:12;;;;;;;7.65;4.45;;;7.60;99.90;;;;;;5069357;28;20105;-62
2022/05/31 01:41:53;;;;;;;8.65;4.43;;;7.60;99.90;;;;;;5064909;28;20055;-62
2022/05/31 01:44:22;;;;;;;7.75;5.50;;;7.60;99.90;;;;;;5063696;28;20052;-62
2022/05/31 01:46:51;;;;;;;6.63;4.75;;;7.60;99.90;;;;;;5064790;28;20044;-62
2022/05/31 01:49:17;;;;;;;6.95;4.93;;;7.60;99.90;;;;;;5062435;28;20854;-61
2022/05/31 01:51:44;;;;;;;5.18;4.65;;;7.60;99.90;;;;;;5062930;28;20033;-62
2022/05/31 01:54:12;;;;;;;7.10;5.13;;;7.60;99.90;;;;;;5062199;28;20120;-62
2022/05/31 01:56:40;;;;;;;8.82;5.22;;;7.70;99.90;;;;;;5063712;28;20041;-62
2022/05/31 01:59:06;;;;;;;11.27;6.57;;;7.70;99.90;;;;;;5062163;28;20043;-62
2022/05/31 02:01:35;;;;;;;8.35;5.90;;;7.70;99.90;;;;;;5062077;28;20161;-62
2022/05/31 02:04:01;;;;;;;9.98;6.10;;;7.70;99.90;;;;;;5060959;28;20067;-62
2022/05/31 02:06:31;;;;;;;8.82;5.88;;;7.70;99.90;;;;;;5063680;28;20501;-62
2022/05/31 02:08:58;;;;;;;8.63;6.35;;;7.70;99.90;;;;;;5062351;28;20157;-62
2022/05/31 02:11:25;;;;;;;7.47;5.28;;;7.70;99.90;;;;;;5063779;28;20040;-62
2022/05/31 02:13:51;;;;;;;9.25;5.47;;;7.80;99.90;;;;;;5066426;28;20044;-62
2022/05/31 02:16:17;;;;;;;9.50;6.10;;;7.80;99.90;;;;;;5061892;28;20057;-62
2022/05/31 02:21:35;;;;;;;8.10;5.65;;;7.80;99.90;;;;;;5061657;28;20046;-62
2022/05/31 02:24:08;;;;;;;7.60;5.80;;;7.80;99.90;;;;;;5062203;28;20657;-62
2022/05/31 02:26:34;;;;;;;7.50;5.50;;;7.80;99.90;;;;;;5062535;28;20123;-62
2022/05/31 02:29:00;;;;;;;8.00;5.57;;;7.80;99.90;;;;;;5063349;28;20079;-62
2022/05/31 02:31:27;;;;;;;9.98;5.82;;;7.80;99.90;;;;;;5063557;28;20036;-62
2022/05/31 02:33:53;;;;;;;7.43;5.80;;;7.80;99.90;;;;;;5059458;28;20040;-62
2022/05/31 02:36:19;;;;;;;8.52;5.50;;;7.80;99.90;;;;;;5070670;28;20541;-62
2022/05/31 02:38:45;;;;;;;9.10;5.63;;;7.80;99.90;;;;;;5061813;28;20324;-62
2022/05/31 02:41:10;;;;;;;6.65;5.75;;;7.80;99.90;;;;;;5065479;28;20042;-62
2022/05/31 02:43:36;;;;;;;9.02;6.47;;;7.80;99.90;;;;;;5062575;28;20065;-62
2022/05/31 02:46:03;;;;;;;9.45;6.28;;;7.80;99.90;;;;;;5068967;28;20048;-62
2022/05/31 02:48:29;;;;;;;10.38;6.43;;;7.90;99.90;;;;;;5064236;28;20068;-62
2022/05/31 02:50:55;;;;;;;8.18;6.32;;;7.80;99.90;;;;;;5061979;28;20705;-62
2022/05/31 02:53:20;;;;;;;7.88;5.70;;;7.80;99.90;;;;;;5061188;28;20123;-62
2022/05/31 02:55:46;;;;;;;12.43;6.65;;;7.80;99.90;;;;;;5065602;28;20063;-62
2022/05/31 02:58:12;;;;;;;7.93;6.30;;;7.80;99.90;;;;;;5071359;28;20075;-61
2022/05/31 03:00:37;;;;;;;9.70;6.80;;;7.90;99.90;;;;;;5063568;28;20508;-62
2022/05/31 03:03:03;;;;;;;10.00;6.80;;;7.90;99.90;;;;;;5059898;28;20047;-62
2022/05/31 03:05:29;;;;;;;10.10;6.75;;;7.90;99.90;;;;;;5060445;28;20039;-62
2022/05/31 03:07:54;;;;;;;10.10;6.28;;;7.90;99.90;;;;;;5060787;28;20077;-62
2022/05/31 03:10:20;;;;;;;10.88;6.97;;;7.90;99.90;;;;;;5058102;28;20037;-62
2022/05/31 03:12:48;;;;;;;9.85;6.43;;;7.90;99.90;;;;;;5064123;28;20073;-62
2022/05/31 03:15:17;;;;;;;12.15;7.47;;;7.90;99.90;;;;;;5059906;28;20098;-62
2022/05/31 03:17:53;;;;;;;9.90;7.07;;;7.90;99.90;;;;;;5064113;28;20067;-62
2022/05/31 03:20:41;;;;;;;8.95;6.45;;;8.00;99.90;;;;;;5060149;28;20036;-62
2022/05/31 03:23:30;;;;;;;10.02;6.90;;;8.00;99.90;;;;;;5061509;28;20399;-62
2022/05/31 03:26:00;;;;;;;13.90;6.88;;;8.00;99.90;;;;;;5061558;28;20072;-62
2022/05/31 03:28:26;;;;;;;14.57;7.15;;;8.00;99.90;;;;;;5062378;28;20077;-62
2022/05/31 03:30:52;;;;;;;8.60;6.50;;;8.00;99.90;;;;;;5062204;28;20128;-62
2022/05/31 03:33:18;;;;;;;9.57;6.75;;;8.00;99.90;;;;;;5060019;28;20441;-62
2022/05/31 03:35:44;;;;;;;8.18;6.45;;;8.00;99.90;;;;;;5058893;28;20028;-62
2022/05/31 03:38:10;;;;;;;12.68;6.70;;;8.00;99.90;;;;;;5060712;28;20055;-62
2022/05/31 03:43:20;;;;;;;9.98;7.30;;;8.00;99.90;;;;;;5060713;28;20068;-62
2022/05/31 03:45:46;;;;;;;9.20;7.15;;;8.00;99.90;;;;;;5059728;28;20044;-62
2022/05/31 03:48:12;;;;;;;8.20;6.38;;;8.10;99.90;;;;;;5060829;28;20492;-62
2022/05/31 03:50:38;;;;;;;8.98;6.72;;;8.10;99.90;;;;;;5064833;28;20036;-62
2022/05/31 03:53:06;;;;;;;8.27;6.57;;;8.10;99.90;;;;;;5059304;28;20059;-62
2022/05/31 03:55:31;;;;;;;7.93;6.68;;;8.10;99.90;;;;;;5058253;28;20039;-62
2022/05/31 03:57:57;;;;;;;9.07;7.00;;;8.10;99.90;;;;;;5080246;28;20044;-62
2022/05/31 04:00:23;;;;;;;12.13;7.00;;;8.10;99.90;;;;;;5060652;28;20506;-62
2022/05/31 04:02:48;;;;;;;10.73;7.03;;;8.10;99.90;;;;;;5060795;28;20441;-62
2022/05/31 04:05:14;;;;;;;12.00;7.28;;;8.20;99.90;;;;;;5060804;28;20131;-62
2022/05/31 04:07:40;;;;;;;9.25;6.88;;;8.10;99.90;;;;;;5062256;28;20024;-62
2022/05/31 04:10:07;;;;;;;9.25;6.68;;;8.20;99.90;;;;;;5061144;28;20028;-62
2022/05/31 04:12:37;;;;;;;9.75;7.55;;;8.20;99.90;;;;;;5062826;28;20039;-62
2022/05/31 04:15:04;;;;;;;9.60;7.35;;;8.30;99.90;;;;;;5060235;28;20139;-62
2022/05/31 04:17:29;;;;;;;9.27;6.90;;;8.30;99.90;;;;;;5059506;28;20036;-62
2022/05/31 04:19:55;;;;;;;8.65;7.25;;;8.30;99.90;;;;;;5059129;28;20056;-62
2022/05/31 04:22:21;;;;;;;8.95;7.10;;;8.30;99.90;;;;;;5059569;28;20052;-62
2022/05/31 04:24:46;;;;;;;8.88;6.97;;;8.40;99.90;;;;;;5059331;28;20127;-62
2022/05/31 04:27:16;;;;;;;10.20;7.07;;;8.40;99.90;;;;;;5059251;28;20032;-61
2022/05/31 04:29:42;;;;;;;10.00;7.05;;;8.40;99.90;;;;;;5062075;28;20108;-62
2022/05/31 04:32:08;;;;;;;11.70;7.65;;;8.50;99.90;;;;;;5059298;28;20036;-61
2022/05/31 04:34:33;;;;;;;8.77;7.10;;;8.50;99.90;;;;;;5056310;28;20669;-62
2022/05/31 04:37:00;;;;;;;9.93;7.05;;;8.50;99.90;;;;;;5056396;28;20048;-62
2022/05/31 04:39:25;;;;;;;9.38;7.18;;;8.60;99.90;;;;;;5062143;28;20044;-62
2022/05/31 04:41:51;;;;;;;10.30;7.43;;;8.60;99.90;;;;;;5063973;28;23325;-62
2022/05/31 04:44:17;;;;;;;9.77;7.35;;;8.70;99.90;;;;;;5061609;28;20045;-62
2022/05/31 04:46:43;;;;;;;12.52;7.32;;;8.70;99.90;;;;;;5065857;28;20040;-62
2022/05/31 04:49:08;;;;;;;11.18;7.90;;;8.80;99.90;;;;;;5062524;28;20036;-62
2022/05/31 04:51:34;;;;;;;9.30;7.18;;;8.80;99.90;;;;;;5065411;28;20036;-62
2022/05/31 04:54:01;;;;;;;9.88;7.40;;;8.90;99.90;;;;;;5060107;28;20043;-61
2022/05/31 04:56:27;;;;;;;12.23;7.57;;;8.90;99.90;;;;;;5068893;28;20036;-62
2022/05/31 04:58:53;;;;;;;8.77;7.57;;;8.90;99.90;;;;;;5067529;28;20039;-62
2022/05/31 05:01:20;;;;;;;10.95;7.53;;;9.00;99.90;;;;;;5057721;28;20078;-62
2022/05/31 05:03:46;;;;;;;11.68;7.63;;;9.10;99.90;;;;;;5063425;28;20032;-62
2022/05/31 05:06:15;;;;;;;10.65;7.50;;;9.10;99.90;;;;;;5061610;28;20032;-62
2022/05/31 05:08:41;;;;;;;12.00;8.05;;;9.10;99.90;;;;;;5063220;28;20028;-62
2022/05/31 05:11:09;;;;;;;7.93;6.70;;;9.20;99.90;;;;;;5061300;28;20033;-62
2022/05/31 05:13:36;;;;;;;9.90;7.57;;;9.20;99.90;;;;;;5060288;28;20278;-62
2022/05/31 05:16:02;;;;;;;10.85;7.72;;;9.30;99.90;;;;;;5067263;28;20044;-62
2022/05/31 05:18:28;;;;;;;12.25;7.20;;;9.30;99.90;;;;;;5064058;28;20093;-62
2022/05/31 05:20:54;;;;;;;10.52;8.18;;;9.40;99.90;;;;;;5063366;28;20035;-62
2022/05/31 05:23:20;;;;;;;11.27;8.10;;;9.40;99.90;;;;;;5062848;28;20032;-62
2022/05/31 05:25:51;;;;;;;14.48;8.55;;;9.50;99.90;;;;;;5060944;28;20044;-63
2022/05/31 05:31:01;;;;;;;11.45;7.90;;;9.60;99.90;;;;;;5065079;28;20412;-62
2022/05/31 05:33:27;;;;;;;13.80;8.15;;;9.60;99.90;;;;;;5061406;28;20041;-63
2022/05/31 05:35:53;;;;;;;10.80;6.85;;;9.70;99.90;;;;;;5060963;28;20123;-62
2022/05/31 05:38:18;;;;;;;12.48;7.22;;;9.70;99.90;;;;;;5066364;28;20481;-63
2022/05/31 05:40:44;;;;;;;10.80;8.18;;;9.80;99.90;;;;;;5065925;28;20036;-63
2022/05/31 05:43:10;;;;;;;11.50;8.02;;;9.80;99.90;;;;;;5065806;28;20060;-63
2022/05/31 05:45:36;;;;;;;9.65;8.13;;;9.90;99.90;;;;;;5062881;28;20055;-62
2022/05/31 05:48:02;;;;;;;11.20;7.57;;;10.10;99.90;;;;;;5065831;28;20047;-63
2022/05/31 05:50:28;;;;;;;10.13;8.38;;;10.20;99.90;;;;;;5060493;28;20555;-63
2022/05/31 05:52:58;;;;;;;10.32;6.95;;;10.30;99.90;;;;;;5060500;28;20151;-62
2022/05/31 05:55:23;;;;;;;10.55;7.65;;;10.30;99.90;;;;;;5071472;28;20131;-63
2022/05/31 05:57:49;;;;;;;10.18;6.85;;;10.30;99.90;;;;;;5071849;28;20123;-63
2022/05/31 06:00:14;;;;;;;10.55;7.28;;;10.40;99.90;;;;;;5076170;28;20046;-62
2022/05/31 06:02:45;;;;;;;7.85;6.32;;;10.40;99.90;;;;;;5090768;28;20555;-63
2022/05/31 06:05:18;;;;;;;;;;;10.50;99.90;;;;;;5071328;28;20407;-63
2022/05/31 06:07:54;;;;;;;9.38;7.18;;;10.50;99.90;;;;;;5078749;28;19922;-63
2022/05/31 06:10:28;;;;;;;10.45;7.80;;;10.50;99.90;;;;;;5079983;28;20534;-62
2022/05/31 06:13:00;;;;;;;10.60;7.10;;;10.60;99.90;;;;;;5070150;28;20040;-62
2022/05/31 06:15:32;;;;;;;10.10;7.40;;;10.70;99.90;;;;;;5077409;28;20127;-63
2022/05/31 06:18:00;;;;;;;9.27;7.30;;;10.70;99.90;;;;;;5085578;28;20052;-62
2022/05/31 06:20:29;;;;;;;9.32;7.50;;;10.80;99.90;;;;;;5086501;28;20398;-62
2022/05/31 06:22:56;;;;;;;8.82;7.07;;;10.80;99.90;;;;;;5078572;28;20032;-62
2022/05/31 06:25:21;;;;;;;8.85;6.82;;;10.90;99.90;;;;;;5078658;28;20101;-62
2022/05/31 06:27:48;;;;;;;9.15;6.45;;;10.90;99.90;;;;;;5080270;28;20039;-62
2022/05/31 06:30:14;;;;;;;9.63;6.82;;;11.00;99.90;;;;;;5083192;28;20040;-62
2022/05/31 06:32:39;;;;;;;9.85;6.82;;;11.10;99.90;;;;;;5069054;28;20033;-63
2022/05/31 06:35:05;;;;;;;7.88;6.47;;;11.10;99.90;;;;;;5068881;28;20044;-63
2022/05/31 06:37:31;;;;;;;10.98;7.28;;;11.20;99.90;;;;;;5069772;28;20051;-63
2022/05/31 06:39:57;;;;;;;8.75;7.10;;;11.30;99.90;;;;;;5068518;28;20455;-63
2022/05/31 06:42:23;;;;;;;9.27;6.22;;;11.40;99.90;;;;;;5070900;28;20109;-62
2022/05/31 06:44:49;;;;;;;8.80;6.43;;;11.60;99.90;;;;;;5071090;28;20052;-63
2022/05/31 06:47:15;;;;;;;7.35;6.18;;;11.70;99.90;;;;;;5069431;28;20442;-63
2022/05/31 06:49:41;;;;;;;8.75;6.32;;;11.90;99.90;;;;;;5082221;28;20032;-62
2022/05/31 06:57:56;;;;;;;8.25;5.72;;;12.10;99.90;;;;;;5068160;28;20047;-62
2022/05/31 07:00:22;;;;;;;10.38;6.28;;;12.20;99.90;;;;;;5072036;28;20388;-62
2022/05/31 07:02:49;;;;;;;5.97;5.13;;;12.30;99.90;;;;;;5069882;28;20036;-62
2022/05/31 07:05:16;;;;;;;6.45;5.07;;;12.40;99.90;;;;;;5072666;28;20056;-63
2022/05/31 07:07:41;;;;;;;6.95;5.47;;;12.50;99.90;;;;;;5072995;28;20047;-63
2022/05/31 07:10:08;;;;;;;7.55;5.10;;;12.60;99.90;;;;;;5073365;28;20404;-63
2022/05/31 07:12:35;;;;;;;9.82;5.68;;;12.80;99.90;;;;;;5077552;28;20162;-63
2022/05/31 07:15:01;;;;;;;8.57;5.70;;;12.90;99.90;;;;;;5077030;28;20036;-63
2022/05/31 07:17:27;;;;;;;10.00;4.95;;;13.00;99.80;;;;;;5075262;28;20051;-62
2022/05/31 07:19:52;;;;;;;8.80;5.53;;;13.00;99.30;;;;;;5091571;28;20641;-62
2022/05/31 07:22:18;;;;;;;9.52;5.35;;;13.10;99.00;;;;;;5088498;28;20047;-63
2022/05/31 07:24:44;;;;;;;6.65;5.15;;;13.20;98.80;;;;;;5078834;28;20123;-63
2022/05/31 07:27:10;;;;;;;8.15;5.07;;;13.60;98.40;;;;;;5077134;28;20177;-63
2022/05/31 07:29:36;;;;;;;8.20;5.10;;;14.00;98.10;;;;;;5082753;28;20430;-62
2022/05/31 07:32:01;;;;;;;9.25;5.15;;;14.40;96.70;;;;;;5070884;28;20048;-63
2022/05/31 07:34:27;;;;;;;6.05;4.57;;;14.60;94.80;;;;;;5078635;28;20040;-63
2022/05/31 07:36:53;;;;;;;6.10;4.22;;;15.00;95.20;;;;;;5070648;28;20032;-63
2022/05/31 07:39:22;;;;;;;7.45;4.35;;;15.40;93.30;;;;;;5083857;28;20157;-63
2022/05/31 07:41:49;;;;;;;5.15;3.72;;;15.60;93.10;;;;;;5082309;28;20372;-63
2022/05/31 07:44:16;;;;;;;4.32;3.92;;;15.90;92.80;;;;;;5071885;28;20064;-63
2022/05/31 07:46:43;;;;;;;6.65;4.38;;;16.30;91.80;;;;;;5071233;28;20404;-63
2022/05/31 07:49:09;;;;;;;4.97;4.00;;;16.60;91.40;;;;;;5068239;28;20037;-63
2022/05/31 07:51:34;;;;;;;5.32;3.65;;;16.70;90.60;;;;;;5071014;28;20035;-63
2022/05/31 07:54:00;;;;;;;4.13;3.45;;;17.00;88.50;;;;;;5069914;28;20032;-63
2022/05/31 07:56:27;;;;;;;5.07;3.63;;;17.10;87.60;;;;;;5079868;28;20041;-63
2022/05/31 07:58:53;;;;;;;7.13;3.47;;;17.30;84.70;;;;;;5072507;28;20072;-63
2022/05/31 08:01:27;;;;;;;4.97;3.20;;;17.50;82.50;;;;;;5072986;28;20067;-63
2022/05/31 08:03:54;;;;;;;6.35;3.80;;;17.70;80.20;;;;;;5073753;28;20093;-63
2022/05/31 08:06:22;;;;;;;4.60;2.78;;;17.70;78.00;;;;;;5087912;28;20552;-63
2022/05/31 08:08:48;;;;;;;6.68;3.00;;;17.70;72.90;;;;;;5076795;28;20051;-63
2022/05/31 08:11:15;;;;;;;6.03;3.45;;;17.80;73.40;;;;;;5084191;28;20040;-63
2022/05/31 08:13:41;;;;;;;5.40;2.88;;;18.10;70.10;;;;;;5074279;28;20032;-63
2022/05/31 08:16:10;;;;;;;4.13;2.60;;;18.20;69.90;;;;;;5088921;28;20481;-63
2022/05/31 08:18:37;;;;;;;3.10;2.80;;;18.30;67.60;;;;;;5087320;28;20048;-64
2022/05/31 08:21:08;;;;;;;4.78;2.70;;;18.40;67.50;;;;;;5086975;28;20040;-64
2022/05/31 08:24:23;;;;;;;6.55;3.05;;;18.70;63.50;;;;;;5083186;28;20640;-64
2022/05/31 08:26:50;;;;;;;2.97;2.38;;;18.80;58.50;;;;;;5083516;28;20443;-63
2022/05/31 08:29:17;;;;;;;6.40;2.95;;;18.50;63.40;;;;;;5086845;28;20078;-64
2022/05/31 08:31:43;;;;;;;4.25;2.75;;;18.60;62.50;;;;;;5082805;28;20083;-64
2022/05/31 08:34:10;;;;;;;6.63;2.42;;;18.60;61.50;;;;;;5087310;28;20067;-64
2022/05/31 08:36:35;;;;;;;4.53;2.50;;;18.70;60.80;;;;;;5095004;28;20052;-64
2022/05/31 08:39:02;;;;;;;2.85;2.38;;;18.40;58.40;;;;;;5092722;28;20059;-64
2022/05/31 08:41:36;;;;;;;3.65;2.28;;;19.10;59.10;;;;;;5089583;28;20081;-64
2022/05/31 08:44:30;;;;;;;6.28;2.42;;;19.30;57.20;;;;;;5081647;28;20052;-64
2022/05/31 08:47:00;;;;;;;2.20;1.90;;;20.10;57.20;;;;;;5085144;28;20048;-65
2022/05/31 08:52:58;;;;;;;2.83;1.50;;;21.10;50.50;;;;;;5062828;28;20071;-64
2022/05/31 08:58:26;;;;;;;3.17;2.00;;;21.60;47.30;;;;;;5093718;28;20047;-64
2022/05/31 09:00:55;;;;;;;4.07;2.22;;;21.40;47.10;;;;;;5089262;28;20052;-63
2022/05/31 09:03:29;;;;;;;3.25;1.90;;;21.60;48.30;;;;;;5090110;28;20052;-64
2022/05/31 09:06:05;;;;;;;2.22;1.70;;;21.80;47.10;;;;;;5082068;28;20036;-64
2022/05/31 09:09:04;;;;;;;2.78;1.70;;;21.20;41.90;;;;;;5073486;28;20076;-64
2022/05/31 09:11:53;;;;;;;5.88;1.83;;;21.90;46.10;;;;;;5062065;28;20048;-64
2022/05/31 09:14:34;;;;;;;4.20;1.63;;;21.40;43.30;;;;;;5083027;28;20794;-64
2022/05/31 09:17:10;;;;;;;3.70;2.08;;;21.50;44.20;;;;;;5074302;28;20106;-64
2022/05/31 09:19:42;;;;;;;3.85;1.98;;;22.00;41.50;;;;;;5075043;28;20091;-64
2022/05/31 09:22:09;;;;;;;2.85;1.73;;;22.20;41.30;;;;;;5090377;28;20101;-64
2022/05/31 09:24:41;;;;;;;4.88;2.20;;;22.30;42.40;;;;;;5084813;28;20032;-64
2022/05/31 09:27:13;;;;;;;4.72;2.50;;;22.20;40.70;;;;;;5073513;28;20629;-64
2022/05/31 09:29:48;;;;;;;4.00;2.55;;;22.30;41.30;;;;;;5077153;28;20032;-64
2022/05/31 09:32:38;;;;;;;6.78;2.95;;;22.10;41.40;;;;;;5086178;28;20055;-64
2022/05/31 09:35:07;;;;;;;;;;;21.50;40.20;;;;;;5084779;28;20058;-64
2022/05/31 09:37:58;;;;;;;5.60;3.13;;;20.90;40.30;;;;;;5076638;28;20295;-63
2022/05/31 09:40:44;;;;;;;8.52;3.75;;;20.60;42.20;;;;;;5079602;28;20045;-64
2022/05/31 09:43:13;;;;;;;5.93;3.03;;;20.40;42.40;;;;;;5072646;28;20090;-63
2022/05/31 09:46:12;;;;;;;7.55;3.20;;;20.00;43.60;;;;;;5074248;28;20061;-64
2022/05/31 09:48:50;;;;;;;5.38;2.60;;;19.70;42.90;;;;;;5084801;28;20051;-65
2022/05/31 09:51:15;;;;;;;5.07;2.42;;;19.20;44.40;;;;;;5075066;28;20354;-64
2022/05/31 09:59:13;;;;;;;5.25;2.85;;;18.20;47.50;;;;;;5090590;28;20150;-64
2022/05/31 10:01:46;;;;;;;5.13;2.55;;;18.00;46.60;;;;;;5074665;28;20498;-64
2022/05/31 10:04:24;;;;;;;3.20;2.20;;;17.70;46.80;;;;;;5069977;28;20408;-64
2022/05/31 10:07:01;;;;;;;4.22;2.50;;;17.60;46.30;;;;;;5087147;28;20037;-64
2022/05/31 10:09:32;;;;;;;3.78;2.65;;;17.50;46.40;;;;;;5074730;28;20032;-64
2022/05/31 10:12:26;;;;;;;6.47;2.92;;;17.40;47.30;;;;;;5081782;28;20036;-64
2022/05/31 10:14:54;;;;;;;6.32;2.45;;;17.50;47.30;;;;;;5076017;28;20101;-64
2022/05/31 10:17:41;;;;;;;3.88;2.22;;;17.60;48.00;;;;;;5089989;28;20040;-64
2022/05/31 10:20:21;;;;;;;5.35;2.40;;;17.80;48.00;;;;;;5081443;28;20047;-64
2022/05/31 10:23:05;;;;;;;3.13;2.38;;;17.70;47.80;;;;;;5074672;28;20036;-64
2022/05/31 10:25:40;;;;;;;6.55;2.30;;;17.70;48.90;;;;;;5052732;28;20040;-64
2022/05/31 10:28:12;;;;;;;3.67;1.83;;;17.80;49.00;;;;;;5075945;28;21002;-64
2022/05/31 10:30:39;;;;;;;4.30;1.95;;;17.70;46.60;;;;;;5074534;28;20381;-64
2022/05/31 10:33:20;;;;;;;3.83;1.83;;;17.70;48.00;;;;;;5072233;28;20089;-63
2022/05/31 10:36:02;;;;;;;3.17;1.75;;;17.70;46.40;;;;;;5084098;28;20098;-63
2022/05/31 10:38:30;;;;;;;2.67;1.70;;;17.60;46.50;;;;;;5072019;28;20045;-64
2022/05/31 10:41:07;;;;;;;5.22;2.58;;;17.60;46.60;;;;;;5074576;28;20048;-64
2022/05/31 10:43:44;;;;;;;4.45;2.40;;;17.50;46.20;;;;;;5077024;28;20060;-64
2022/05/31 10:46:15;;;;;;;4.78;2.35;;;17.60;46.90;;;;;;5081273;28;20049;-64
2022/05/31 10:48:47;;;;;;;;;;;17.90;46.90;;;;;;5089316;28;20086;-63
2022/05/31 10:51:15;;;;;;;3.67;2.28;;;18.10;45.30;;;;;;5083280;28;19979;-63
2022/05/31 10:54:00;;;;;;;3.83;1.90;;;18.50;45.40;;;;;;5071594;28;20040;-63
2022/05/31 10:56:51;;;;;;;3.53;2.20;;;19.20;43.20;;;;;;5070278;28;20070;-64
2022/05/31 10:59:20;;;;;;;;;;;19.70;42.00;;;;;;5072163;28;20055;-63
2022/05/31 11:02:18;;;;;;;5.60;2.00;;;20.10;43.30;;;;;;5070884;28;19924;-64
2022/05/31 11:05:16;;;;;;;5.18;2.05;;;20.00;41.30;;;;;;5074654;28;20123;-64
2022/05/31 11:13:54;;;;;;;2.53;2.05;;;20.30;38.70;;;;;;5084978;28;20082;-64
2022/05/31 11:16:26;;;;;;;5.57;2.72;;;20.40;39.10;;;;;;5072295;28;20086;-64
2022/05/31 11:19:05;;;;;;;6.85;2.65;;;20.50;38.50;;;;;;5068778;28;20411;-64
2022/05/31 11:22:05;;;;;;;5.13;2.53;;;20.50;38.00;;;;;;5091310;28;20411;-64
2022/05/31 11:24:39;;;;;;;3.67;2.00;;;20.60;37.70;;;;;;5081302;28;20040;-64
2022/05/31 11:27:42;;;;;;;3.20;2.42;;;20.60;38.70;;;;;;5071731;28;20464;-64
2022/05/31 11:30:21;;;;;;;6.57;2.17;;;20.80;38.20;;;;;;5074702;28;20032;-65
2022/05/31 11:33:08;;;;;;;5.10;2.38;;;20.80;39.40;;;;;;5070343;28;20042;-64
2022/05/31 11:36:10;;;;;;;3.05;1.80;;;20.90;37.70;;;;;;5077776;28;20036;-64
2022/05/31 11:38:55;;;;;;;3.65;2.63;;;20.70;36.70;;;;;;5074325;28;20469;-64
2022/05/31 11:41:53;;;;;;;5.00;2.53;;;20.60;37.90;;;;;;5090736;28;20380;-64
2022/05/31 11:44:51;;;;;;;3.38;2.20;;;20.40;39.40;;;;;;5077017;28;20459;-64
2022/05/31 11:47:35;;;;;;;4.43;2.70;;;20.20;38.50;;;;;;5082390;28;20914;-64
2022/05/31 11:50:01;;;;;;;5.10;2.30;;;19.80;39.10;;;;;;5085428;28;20028;-64
2022/05/31 11:52:32;;;;;;;3.20;2.15;;;19.70;39.50;;;;;;5086724;28;20039;-65
2022/05/31 11:55:26;;;;;;;5.07;2.42;;;19.60;39.70;;;;;;5090076;28;20585;-64
2022/05/31 11:58:25;;;;;;;3.65;2.38;;;19.70;39.80;;;;;;5087528;28;20471;-64
2022/05/31 12:01:03;;;;;;;8.18;2.78;;;19.80;40.80;;;;;;5084532;28;20059;-65
2022/05/31 12:03:39;;;;;;;4.90;2.22;;;19.50;38.60;;;;;;5085015;28;20047;-64
2022/05/31 12:06:13;;;;;;;5.28;2.83;;;19.60;40.90;;;;;;5070251;28;20051;-64
2022/05/31 12:08:58;;;;;;;3.30;2.85;;;19.20;39.50;;;;;;5072372;28;20067;-64
2022/05/31 12:11:36;;;;;;;3.83;2.38;;;19.70;39.40;;;;;;5077533;28;20119;-64
2022/05/31 12:14:04;;;;;;;3.20;2.20;;;20.00;39.20;;;;;;5088498;28;20103;-65
2022/05/31 12:16:30;;;;;;;3.63;2.45;;;20.40;40.00;;;;;;5070739;28;20036;-64
2022/05/31 12:19:34;;;;;;;5.07;2.72;;;21.30;39.70;;;;;;5081330;28;20176;-64
2022/05/31 12:22:19;;;;;;;3.63;2.45;;;20.40;34.10;;;;;;5072659;28;20044;-65
2022/05/31 12:25:00;;;;;;;5.85;2.55;;;21.00;37.70;;;;;;5075752;28;20173;-64
2022/05/31 12:27:37;;;;;;;4.35;3.10;;;20.90;36.30;;;;;;5089829;28;20630;-64
2022/05/31 12:30:07;;;;;;;4.15;2.88;;;19.70;37.90;;;;;;5072500;28;20036;-64
2022/05/31 12:32:35;;;;;;;6.38;2.47;;;19.60;38.20;;;;;;5071315;28;20476;-64
2022/05/31 12:35:04;;;;;;;5.70;2.88;;;19.90;39.70;;;;;;5072922;28;20036;-64
2022/05/31 12:38:03;;;;;;;4.82;3.40;;;19.40;37.70;;;;;;5072010;28;20047;-64
2022/05/31 12:40:35;;;;;;;4.82;2.92;;;19.50;37.20;;;;;;5072155;28;20082;-64
2022/05/31 12:43:14;;;;;;;7.63;2.80;;;19.60;38.10;;;;;;5076111;28;20106;-64
2022/05/31 12:45:42;;;;;;;3.97;2.50;;;19.60;37.30;;;;;;5072899;28;20047;-63
2022/05/31 12:48:10;;;;;;;4.20;2.45;;;20.20;37.90;;;;;;5072164;28;20063;-64
2022/05/31 12:51:00;;;;;;;5.47;2.15;;;21.50;36.20;;;;;;5087507;28;20704;-64
2022/05/31 12:53:37;;;;;;;4.43;2.90;;;21.90;35.60;;;;;;5062322;28;20131;-64
2022/05/31 12:56:05;;;;;;;5.32;3.10;;;20.90;35.30;;;;;;5071504;28;20404;-64
2022/05/31 12:58:47;;;;;;;8.38;3.03;;;20.00;37.70;;;;;;5072144;28;20119;-65
2022/05/31 13:01:16;;;;;;;4.85;2.60;;;20.00;37.80;;;;;;5073363;28;20384;-64
2022/05/31 13:03:50;;;;;;;5.32;2.83;;;19.70;38.60;;;;;;5086252;28;20442;-63
2022/05/31 13:06:57;;;;;;;4.18;2.90;;;19.60;39.00;;;;;;5095088;28;20406;-64
2022/05/31 13:09:23;;;;;;;5.68;2.95;;;19.00;37.00;;;;;;5088021;28;20072;-64
2022/05/31 13:20:36;;;;;;;5.55;2.97;;;19.30;39.60;;;;;;5086343;28;20063;-64
2022/05/31 13:23:07;;;;;;;3.60;2.83;;;19.20;38.60;;;;;;5082252;28;20051;-64
2022/05/31 13:25:38;;;;;;;4.22;3.45;;;18.80;36.80;;;;;;5077397;28;20036;-64
2022/05/31 13:28:04;;;;;;;4.60;2.92;;;18.70;39.20;;;;;;5076538;28;20075;-64
2022/05/31 13:30:40;;;;;;;5.03;3.40;;;18.80;40.20;;;;;;5077096;28;20063;-65
2022/05/31 13:33:14;;;;;;;5.07;3.20;;;18.60;40.70;;;;;;5074184;28;20047;-64
2022/05/31 13:35:40;;;;;;;7.68;3.30;;;18.60;41.00;;;;;;5080193;28;20102;-64
2022/05/31 13:38:15;;;;;;;4.90;3.30;;;18.50;40.00;;;;;;5076806;28;20040;-64
2022/05/31 13:40:49;;;;;;;6.32;3.53;;;18.10;39.80;;;;;;5090576;28;20119;-63
2022/05/31 13:43:26;;;;;;;5.50;3.50;;;18.30;40.70;;;;;;5074773;28;20064;-63
2022/05/31 13:45:53;;;;;;;6.32;3.05;;;17.80;40.90;;;;;;5074484;28;20049;-64
2022/05/31 13:48:22;;;;;;;8.00;3.20;;;18.00;41.90;;;;;;5073908;28;20530;-64
2022/05/31 13:50:55;;;;;;;4.63;2.97;;;17.80;40.50;;;;;;5092531;28;20356;-63
2022/05/31 13:53:22;;;;;;;5.00;3.10;;;17.80;40.90;;;;;;5080229;28;20118;-63